Time;durP1;ratioP1;P1;durP2;ratioP2;P2;SDS_P1;SDS_P2;PMS_P1;PMS_P2;Temp;Humidity;BMP_temperature;BMP_pressure;BME280_temperature;BME280_humidity;BME280_pressure;Samples;Min_cycle;Max_cycle;Signal;HPM_P1;HPM_P2
2023/08/14 00:01:51;;;;;;;2.78;1.80;;;;;;;25.03;34.33;99062.56;4961968;28;20042;-94
2023/08/14 00:04:17;;;;;;;5.63;1.85;;;;;;;25.03;34.29;99054.53;4978187;28;20030;-92
2023/08/14 00:06:42;;;;;;;3.35;1.80;;;;;;;25.03;34.30;99054.53;4965237;28;20704;-88
2023/08/14 00:09:08;;;;;;;6.32;1.75;;;;;;;25.00;34.28;99056.78;4992825;28;20049;-76
2023/08/14 00:11:33;;;;;;;3.15;1.73;;;;;;;25.00;34.07;99041.59;4960727;28;20065;-76
2023/08/14 00:13:59;;;;;;;3.00;1.77;;;;;;;25.05;34.06;99054.34;4977146;28;20069;-76
2023/08/14 00:16:25;;;;;;;3.00;1.60;;;;;;;25.04;33.98;99050.00;4976900;28;20069;-76
2023/08/14 00:18:50;;;;;;;2.50;1.90;;;;;;;25.06;34.23;99048.78;4960685;28;20026;-75
2023/08/14 00:21:16;;;;;;;3.50;1.80;;;;;;;25.03;34.13;99051.88;4976595;28;20093;-76
2023/08/14 00:23:41;;;;;;;3.78;1.75;;;;;;;24.98;34.37;99042.81;4976659;28;20045;-75
2023/08/14 00:26:07;;;;;;;2.67;1.70;;;;;;;25.00;34.37;99040.75;4944454;28;20104;-76
2023/08/14 00:28:33;;;;;;;5.50;1.88;;;;;;;24.98;34.35;99040.94;4976314;28;20472;-76
2023/08/14 00:30:58;;;;;;;3.65;1.88;;;;;;;25.00;34.36;99044.25;4960403;28;20544;-76
2023/08/14 00:33:23;;;;;;;4.05;1.92;;;;;;;24.99;34.72;99045.28;4976295;28;20413;-76
2023/08/14 00:35:49;;;;;;;2.90;1.90;;;;;;;24.96;34.61;99035.00;4959822;28;20073;-75
2023/08/14 00:38:14;;;;;;;4.47;1.90;;;;;;;24.99;34.71;99036.47;4959937;28;20072;-75
2023/08/14 00:40:40;;;;;;;4.95;1.98;;;;;;;24.95;34.48;99040.53;4993755;28;20031;-75
2023/08/14 00:43:05;;;;;;;3.30;1.80;;;;;;;24.93;34.87;99038.06;4976470;28;20494;-76
2023/08/14 00:45:31;;;;;;;2.58;1.85;;;;;;;24.91;35.10;99034.78;4976497;28;20397;-76
2023/08/14 00:47:57;;;;;;;5.40;1.85;;;;;;;24.93;35.17;99040.75;4960047;28;20061;-75
2023/08/14 00:50:22;;;;;;;4.78;1.90;;;;;;;24.90;35.24;99041.97;4976159;28;20038;-75
2023/08/14 00:52:48;;;;;;;6.00;2.20;;;;;;;24.87;35.30;99039.69;4975957;28;20066;-75
2023/08/14 00:55:17;;;;;;;3.03;1.88;;;;;;;24.90;35.42;99043.81;4960362;28;20489;-75
2023/08/14 00:57:42;;;;;;;6.00;1.95;;;;;;;24.88;35.61;99054.72;4944207;28;20478;-75
2023/08/14 01:00:09;;;;;;;4.13;1.70;;;;;;;24.81;35.58;99048.53;4959902;28;20038;-75
2023/08/14 01:02:34;;;;;;;7.03;1.90;;;;;;;24.81;35.59;99045.03;4992097;28;20489;-75
2023/08/14 01:05:00;;;;;;;3.63;1.80;;;;;;;24.82;35.94;99046.69;4959799;28;20037;-75
2023/08/14 01:07:25;;;;;;;7.18;2.20;;;;;;;24.81;35.86;99043.19;4975717;28;20112;-74
2023/08/14 01:09:51;;;;;;;4.65;2.03;;;;;;;24.78;36.09;99040.94;4959377;28;20038;-75
2023/08/14 01:12:42;;;;;;;4.65;1.70;;;;;;;24.77;35.95;99035.81;4975749;28;20046;-75
2023/08/14 01:15:11;;;;;;;3.00;1.90;;;;;;;24.73;36.15;99038.88;4961857;28;20046;-75
2023/08/14 01:17:36;;;;;;;2.95;1.83;;;;;;;24.72;36.11;99036.41;4943829;28;20046;-74
2023/08/14 01:20:04;;;;;;;8.65;2.40;;;;;;;24.69;36.44;99036.81;4975512;28;20092;-75
2023/08/14 01:22:54;;;;;;;5.45;2.28;;;;;;;24.67;36.68;99030.81;4959810;28;20409;-75
2023/08/14 01:25:33;;;;;;;4.22;1.90;;;;;;;24.63;36.79;99027.75;4959817;28;20034;-75
2023/08/14 01:27:59;;;;;;;2.25;1.80;;;;;;;24.63;36.84;99033.09;4991775;28;20049;-75
2023/08/14 01:30:24;;;;;;;3.88;2.25;;;;;;;24.62;37.01;99034.13;4991848;28;20125;-75
2023/08/14 01:32:50;;;;;;;4.75;1.90;;;;;;;24.61;36.94;99043.16;4959189;28;20117;-74
2023/08/14 01:35:17;;;;;;;4.00;1.85;;;;;;;24.62;36.56;99047.47;4959399;28;20138;-75
2023/08/14 01:37:45;;;;;;;5.20;1.92;;;;;;;24.62;36.84;99050.13;4943278;28;20037;-75
2023/08/14 01:40:21;;;;;;;2.97;2.20;;;;;;;24.58;36.69;99051.56;4992848;28;20046;-74
2023/08/14 01:42:48;;;;;;;3.75;2.00;;;;;;;24.54;36.81;99045.75;4959232;28;20509;-75
2023/08/14 01:45:16;;;;;;;3.90;1.90;;;;;;;24.52;37.13;99046.97;4959790;28;20132;-75
2023/08/14 01:47:41;;;;;;;;;;;;;;;24.51;37.10;99042.66;4959967;28;20049;-74
2023/08/14 01:50:07;;;;;;;3.80;1.90;;;;;;;24.46;37.22;99042.44;4975185;28;19910;-74
2023/08/14 01:52:32;;;;;;;5.32;2.40;;;;;;;24.43;37.47;99041.00;4975474;28;20038;-76
2023/08/14 01:55:01;;;;;;;4.38;2.28;;;;;;;24.41;37.37;99037.69;4975666;28;20453;-75
2023/08/14 01:57:27;;;;;;;3.15;2.00;;;;;;;24.36;37.56;99029.47;4994897;28;20049;-75
2023/08/14 01:59:52;;;;;;;4.43;1.98;;;;;;;24.32;37.72;99034.41;4979733;28;20100;-74
2023/08/14 02:02:18;;;;;;;5.30;2.30;;;;;;;24.29;37.84;99037.47;4963451;28;20498;-74
2023/08/14 02:04:43;;;;;;;3.05;1.92;;;;;;;24.26;37.99;99029.84;4996474;28;20061;-74
2023/08/14 02:07:12;;;;;;;7.60;2.38;;;;;;;24.29;37.80;99032.13;4978743;28;20382;-75
2023/08/14 02:09:38;;;;;;;8.23;2.42;;;;;;;24.31;37.66;99029.25;4979490;28;20038;-75
2023/08/14 02:12:03;;;;;;;4.10;2.10;;;;;;;24.33;37.75;99032.53;4962791;28;20081;-75
2023/08/14 02:14:29;;;;;;;2.75;1.92;;;;;;;24.33;37.77;99030.69;4962691;28;20113;-75
2023/08/14 02:16:55;;;;;;;3.25;2.05;;;;;;;24.35;37.73;99031.34;4995546;28;20133;-75
2023/08/14 02:19:20;;;;;;;3.95;1.90;;;;;;;24.28;37.96;99030.47;4978851;28;20129;-75
2023/08/14 02:21:46;;;;;;;4.53;2.13;;;;;;;24.29;37.92;99029.47;4962730;28;20041;-75
2023/08/14 02:24:11;;;;;;;6.15;2.20;;;;;;;24.24;37.99;99023.88;4946127;28;20038;-76
2023/08/14 02:26:37;;;;;;;3.50;2.30;;;;;;;24.26;37.82;99032.53;4963199;28;20121;-75
2023/08/14 02:29:03;;;;;;;2.80;2.08;;;;;;;24.24;38.06;99034.53;4962372;28;20054;-75
2023/08/14 02:31:29;;;;;;;4.80;2.10;;;;;;;24.26;37.81;99035.19;4979110;28;20034;-75
2023/08/14 02:33:58;;;;;;;4.63;2.25;;;;;;;24.26;37.73;99029.00;4962488;28;20490;-75
2023/08/14 02:36:24;;;;;;;4.60;2.10;;;;;;;24.27;37.79;99034.16;4946228;28;20049;-75
2023/08/14 02:38:50;;;;;;;3.38;2.03;;;;;;;24.26;37.74;99034.34;4978495;28;20038;-75
2023/08/14 02:41:15;;;;;;;4.00;1.90;;;;;;;24.26;37.96;99034.34;4962230;28;20473;-75
2023/08/14 02:43:41;;;;;;;2.83;2.00;;;;;;;24.23;37.77;99032.06;4995690;28;20066;-75
2023/08/14 02:46:06;;;;;;;4.43;2.20;;;;;;;24.23;37.76;99032.91;4962370;28;20113;-74
2023/08/14 02:48:32;;;;;;;5.95;2.10;;;;;;;24.26;37.59;99032.53;4978448;28;20125;-75
2023/08/14 02:50:57;;;;;;;3.10;1.90;;;;;;;24.16;37.52;99032.03;4962309;28;20417;-75
2023/08/14 02:53:23;;;;;;;3.67;1.83;;;;;;;24.20;37.65;99036.78;4962619;28;20529;-75
2023/08/14 02:55:51;;;;;;;3.47;2.17;;;;;;;24.16;37.84;99040.03;4945664;28;20038;-74
2023/08/14 02:58:18;;;;;;;6.80;2.03;;;;;;;24.08;37.63;99035.69;4977857;28;20042;-74
2023/08/14 03:00:45;;;;;;;4.07;1.98;;;;;;;24.02;37.65;99042.66;4993816;28;20042;-75
2023/08/14 03:03:10;;;;;;;2.90;1.90;;;;;;;23.96;37.69;99031.97;4961657;28;20038;-77
2023/08/14 03:05:37;;;;;;;4.97;2.30;;;;;;;23.90;37.64;99038.06;4945365;28;20332;-75
2023/08/14 03:08:03;;;;;;;15.00;2.83;;;;;;;23.88;40.30;99034.75;4993390;28;20069;-75
2023/08/14 03:10:29;;;;;;;6.68;2.28;;;;;;;24.08;39.72;99037.56;4960806;28;20038;-75
2023/08/14 03:12:55;;;;;;;7.47;2.10;;;;;;;24.20;38.52;99038.66;4976705;28;20527;-74
2023/08/14 03:15:21;;;;;;;27.48;2.63;;;;;;;24.27;38.81;99026.13;4993019;28;20134;-71
2023/08/14 03:17:46;;;;;;;16.08;2.40;;;;;;;24.51;38.47;99026.63;4961194;28;20042;-77
2023/08/14 03:20:12;;;;;;;12.50;2.65;;;;;;;24.66;38.72;99035.34;4961287;28;20469;-76
2023/08/14 03:22:37;;;;;;;18.13;2.60;;;;;;;24.78;38.97;99040.94;4960629;28;20042;-76
2023/08/14 03:25:03;;;;;;;26.52;2.55;;;;;;;24.87;38.49;99041.56;4961436;28;20200;-76
2023/08/14 03:27:29;;;;;;;14.05;2.65;;;;;;;24.94;38.13;99039.72;4961025;28;20031;-78
2023/08/14 03:29:55;;;;;;;5.55;2.03;;;;;;;25.06;38.33;99040.78;4976626;28;20438;-79
2023/08/14 03:32:20;;;;;;;5.95;2.10;;;;;;;25.12;37.77;99036.47;4961366;28;20082;-79
2023/08/14 03:34:46;;;;;;;7.93;1.95;;;;;;;25.27;37.25;99047.78;4961466;28;20054;-84
2023/08/14 03:37:12;;;;;;;16.65;2.20;;;;;;;25.37;36.90;99035.91;4978506;28;20490;-80
2023/08/14 03:39:37;;;;;;;10.48;2.42;;;;;;;25.47;37.42;99044.31;4994851;28;20188;-84
2023/08/14 03:42:03;;;;;;;5.15;2.13;;;;;;;25.44;37.46;99045.56;4963844;28;20038;-84
2023/08/14 03:44:28;;;;;;;4.68;1.98;;;;;;;25.36;37.36;99045.75;4994666;28;20081;-85
2023/08/14 03:46:54;;;;;;;4.30;1.75;;;;;;;25.60;36.60;99046.13;4994682;28;20416;-85
2023/08/14 03:49:19;;;;;;;6.95;1.70;;;;;;;25.90;35.71;99048.34;4996510;28;20045;-84
2023/08/14 03:51:45;;;;;;;3.42;2.00;;;;;;;26.24;35.29;99052.63;4996362;28;20064;-85
2023/08/14 03:54:10;;;;;;;6.28;2.20;;;;;;;26.62;34.14;99048.34;4996297;28;20112;-85
2023/08/14 03:56:36;;;;;;;3.97;2.00;;;;;;;26.99;33.29;99054.72;4996084;28;20409;-85
2023/08/14 03:59:01;;;;;;;2.63;1.70;;;;;;;27.43;32.69;99054.84;4996319;28;20552;-85
2023/08/14 04:01:27;;;;;;;6.63;2.15;;;;;;;27.89;31.98;99047.41;4996225;28;20057;-85
2023/08/14 04:03:52;;;;;;;3.72;1.63;;;;;;;28.34;31.20;99053.34;4980165;28;20041;-86
2023/08/14 04:06:19;;;;;;;3.22;1.77;;;;;;;28.83;30.44;99060.59;4980281;28;20037;-85
2023/08/14 04:08:45;;;;;;;6.97;1.77;;;;;;;29.35;29.55;99060.03;4996399;28;20058;-87
2023/08/14 04:11:11;;;;;;;7.80;1.90;;;;;;;29.85;28.60;99053.41;4996368;28;20508;-88
2023/08/14 04:13:36;;;;;;;3.67;1.58;;;;;;;30.44;28.07;99062.22;4980427;28;20464;-86
2023/08/14 04:16:03;;;;;;;3.42;1.75;;;;;;;30.98;27.16;99067.28;4980166;28;20038;-87
2023/08/14 04:18:29;;;;;;;4.40;1.90;;;;;;;31.51;26.24;99069.75;4996037;28;20136;-86
2023/08/14 04:20:56;;;;;;;3.55;1.60;;;;;;;32.14;25.80;99070.44;4997514;28;20116;-89
2023/08/14 04:23:24;;;;;;;5.45;1.40;;;;;;;32.64;25.21;99068.63;4980062;28;20033;-86
2023/08/14 04:25:50;;;;;;;4.03;1.55;;;;;;;33.16;24.17;99072.63;4980086;28;20041;-87
2023/08/14 04:28:17;;;;;;;3.25;1.75;;;;;;;33.67;23.74;99070.34;4979368;28;20049;-87
2023/08/14 04:30:42;;;;;;;7.38;1.73;;;;;;;34.24;23.10;99076.13;4978927;28;20115;-87
2023/08/14 04:33:08;;;;;;;5.72;1.58;;;;;;;34.90;22.62;99080.94;4962846;28;20038;-86
2023/08/14 04:35:37;;;;;;;5.00;1.70;;;;;;;35.38;22.10;99086.13;4979369;28;20053;-86
2023/08/14 04:38:03;;;;;;;5.32;1.63;;;;;;;35.96;21.22;99088.53;4980443;28;20397;-86
2023/08/14 04:40:28;;;;;;;6.88;1.83;;;;;;;36.41;20.68;99088.63;5012943;28;20053;-87
2023/08/14 04:42:54;;;;;;;7.50;2.03;;;;;;;36.88;20.18;99084.59;4978718;28;20095;-85
2023/08/14 04:45:19;;;;;;;10.95;1.77;;;;;;;37.41;19.95;99097.53;4994944;28;20056;-87
2023/08/14 04:47:45;;;;;;;9.75;1.90;;;;;;;37.88;19.28;99094.41;4978859;28;20037;-88
2023/08/14 04:50:10;;;;;;;5.47;1.80;;;;;;;38.43;18.98;99099.47;4978409;28;20041;-87
2023/08/14 04:52:36;;;;;;;4.63;1.50;;;;;;;38.88;18.92;99097.25;4994672;28;20069;-80
2023/08/14 04:55:01;;;;;;;9.20;1.60;;;;;;;39.47;17.90;99099.59;4978003;28;20061;-79
2023/08/14 04:57:27;;;;;;;10.50;1.80;;;;;;;39.94;17.54;99105.88;4994188;28;20473;-79
2023/08/14 04:59:52;;;;;;;14.52;2.08;;;;;;;40.41;17.10;99108.50;4994067;28;20040;-79
2023/08/14 05:02:18;;;;;;;20.23;2.28;;;;;;;40.53;17.10;99108.81;4994119;28;20417;-79
2023/08/14 05:04:43;;;;;;;12.73;1.83;;;;;;;40.61;16.82;99110.00;4994045;28;20042;-80
2023/08/14 05:07:09;;;;;;;13.20;2.10;;;;;;;41.13;16.21;99109.66;4994303;28;20417;-80
2023/08/14 05:09:34;;;;;;;10.35;2.30;;;;;;;41.21;16.23;99108.91;4997224;28;20045;-80
2023/08/14 05:12:00;;;;;;;7.75;2.08;;;;;;;41.83;15.66;99107.34;4995489;28;20042;-83
2023/08/14 05:14:26;;;;;;;16.05;2.15;;;;;;;41.31;16.48;99111.44;4978853;28;20041;-81
2023/08/14 05:16:51;;;;;;;8.27;2.22;;;;;;;40.19;17.60;99111.97;4974952;28;20426;-76
2023/08/14 05:19:18;;;;;;;8.80;1.73;;;;;;;39.92;17.69;99106.16;4981831;28;20034;-82
2023/08/14 05:21:45;;;;;;;8.10;2.03;;;;;;;38.53;19.14;99105.59;4978001;28;20474;-86
2023/08/14 05:24:11;;;;;;;14.32;2.38;;;;;;;38.09;19.56;99100.41;4978977;28;20030;-84
2023/08/14 05:26:37;;;;;;;11.25;1.85;;;;;;;37.83;19.52;99103.44;4960621;28;20100;-86
2023/08/14 05:29:02;;;;;;;14.93;2.60;;;;;;;37.17;20.16;99105.59;4975563;28;20050;-86
2023/08/14 05:31:28;;;;;;;7.25;2.10;;;;;;;37.42;19.83;99107.31;4959915;28;20042;-86
2023/08/14 05:33:53;;;;;;;8.48;2.05;;;;;;;36.89;20.71;99112.59;4993715;28;20529;-87
2023/08/14 05:36:19;;;;;;;8.05;2.00;;;;;;;37.04;20.62;99109.78;4959203;28;20065;-86
2023/08/14 05:38:45;;;;;;;10.80;2.25;;;;;;;36.85;20.98;99112.34;4975631;28;20125;-87
2023/08/14 05:41:11;;;;;;;11.88;2.13;;;;;;;37.60;20.11;99105.00;4959503;28;20038;-87
2023/08/14 05:43:36;;;;;;;16.00;2.30;;;;;;;38.20;19.52;99110.13;4975853;28;20045;-87
2023/08/14 05:46:02;;;;;;;12.60;2.13;;;;;;;37.83;20.34;99104.25;4975048;28;20037;-85
2023/08/14 05:48:27;;;;;;;13.98;2.58;;;;;;;37.50;20.55;99108.63;4976967;28;20046;-83
2023/08/14 05:50:53;;;;;;;10.18;1.77;;;;;;;36.84;21.38;99109.91;4959019;28;20542;-81
2023/08/14 05:53:18;;;;;;;9.65;1.80;;;;;;;36.43;21.61;99104.66;4975325;28;20126;-81
2023/08/14 05:55:45;;;;;;;12.15;1.92;;;;;;;36.06;21.86;99112.13;4992545;28;20053;-80
2023/08/14 05:58:11;;;;;;;6.68;2.00;;;;;;;35.89;21.84;99111.63;4959459;28;20125;-80
2023/08/14 06:00:37;;;;;;;10.10;1.83;;;;;;;36.57;21.08;99116.56;4959818;28;20057;-81
2023/08/14 06:03:04;;;;;;;8.95;1.77;;;;;;;37.08;21.12;99113.53;4959044;28;20039;-80
2023/08/14 06:05:29;;;;;;;7.05;1.88;;;;;;;37.25;20.77;99115.91;4959096;28;20038;-78
2023/08/14 06:07:55;;;;;;;9.10;1.85;;;;;;;37.32;20.82;99118.28;4959326;28;20118;-79
2023/08/14 06:10:21;;;;;;;7.60;1.90;;;;;;;37.35;20.69;99115.00;4959021;28;20039;-79
2023/08/14 06:12:48;;;;;;;8.95;1.88;;;;;;;38.98;18.95;99127.09;4975150;28;20410;-79
2023/08/14 06:15:18;;;;;;;9.52;1.42;;;;;;;39.15;18.92;99120.34;4959817;28;20057;-81
2023/08/14 06:17:44;;;;;;;7.20;1.67;;;;;;;39.88;18.02;99121.53;4959490;28;20126;-79
2023/08/14 06:20:11;;;;;;;6.13;1.88;;;;;;;40.29;17.45;99119.97;4959127;28;20046;-80
2023/08/14 06:22:49;;;;;;;4.90;1.70;;;;;;;40.94;17.18;99132.53;4959052;28;20409;-79
2023/08/14 06:25:15;;;;;;;7.45;1.50;;;;;;;41.36;16.43;99118.72;4976366;28;20046;-80
2023/08/14 06:27:41;;;;;;;4.43;1.40;;;;;;;41.23;16.57;99120.38;4974492;28;20042;-82
2023/08/14 06:30:09;;;;;;;5.93;1.70;;;;;;;40.75;17.18;99118.97;4958966;28;20050;-80
2023/08/14 06:32:35;;;;;;;8.25;1.95;;;;;;;40.64;17.04;99125.81;4943546;28;20039;-81
2023/08/14 06:35:00;;;;;;;5.65;1.80;;;;;;;40.65;17.15;99125.50;4976397;28;20472;-81
2023/08/14 06:37:26;;;;;;;3.17;1.80;;;;;;;40.86;16.52;99128.63;4943135;28;20039;-83
2023/08/14 06:39:51;;;;;;;4.80;1.70;;;;;;;40.80;16.36;99118.88;4975151;28;20137;-81
2023/08/14 06:42:17;;;;;;;4.07;1.48;;;;;;;40.20;16.60;99125.34;4959101;28;20046;-79
2023/08/14 06:44:42;;;;;;;4.72;1.42;;;;;;;40.16;16.79;99125.13;4962616;28;20034;-83
2023/08/14 06:47:08;;;;;;;5.47;1.58;;;;;;;39.57;17.25;99122.13;4979737;28;20121;-87
2023/08/14 06:49:33;;;;;;;2.90;1.58;;;;;;;39.19;17.33;99126.81;4979497;28;20078;-88
2023/08/14 06:51:59;;;;;;;2.58;1.67;;;;;;;39.02;17.42;99122.69;4978685;28;20056;-86
2023/08/14 06:54:24;;;;;;;4.13;2.00;;;;;;;38.88;17.87;99119.06;4977946;28;20031;-86
2023/08/14 06:56:50;;;;;;;4.60;1.90;;;;;;;38.73;18.12;99115.47;4976756;28;20034;-86
2023/08/14 06:59:15;;;;;;;5.75;2.10;;;;;;;38.28;18.54;99128.56;4994795;28;20066;-87
2023/08/14 07:01:41;;;;;;;3.85;1.83;;;;;;;37.87;18.73;99117.28;4945541;28;20038;-88
2023/08/14 07:04:07;;;;;;;3.97;2.30;;;;;;;37.49;19.19;99123.31;4993981;28;20053;-85
2023/08/14 07:06:32;;;;;;;5.18;1.80;;;;;;;37.21;19.29;99123.03;4960951;28;20073;-85
2023/08/14 07:08:58;;;;;;;4.72;1.98;;;;;;;37.09;19.53;99111.66;4994948;28;20042;-85
2023/08/14 07:11:23;;;;;;;5.32;1.90;;;;;;;36.99;19.51;99122.59;4979502;28;20513;-85
2023/08/14 07:13:49;;;;;;;3.83;1.98;;;;;;;36.82;19.66;99117.56;4980157;28;20505;-87
2023/08/14 07:16:14;;;;;;;7.40;1.90;;;;;;;36.54;19.97;99122.56;4947025;28;20501;-87
2023/08/14 07:18:40;;;;;;;3.22;1.98;;;;;;;36.37;20.20;99122.91;4963253;28;20038;-87
2023/08/14 07:21:05;;;;;;;5.65;1.80;;;;;;;36.19;20.52;99110.72;4962425;28;20398;-86
2023/08/14 07:23:32;;;;;;;3.80;2.10;;;;;;;36.02;20.72;99117.28;4962322;28;20073;-87
2023/08/14 07:25:59;;;;;;;3.20;1.50;;;;;;;35.97;20.67;99106.41;4946249;28;20536;-88
2023/08/14 07:28:25;;;;;;;5.20;2.08;;;;;;;36.07;20.80;99113.72;4962973;28;20113;-86
2023/08/14 07:30:50;;;;;;;5.03;2.10;;;;;;;36.07;20.78;99102.84;4978648;28;20061;-88
2023/08/14 07:33:16;;;;;;;4.82;1.90;;;;;;;36.13;20.83;99101.75;4962706;28;20037;-86
2023/08/14 07:35:41;;;;;;;3.63;2.20;;;;;;;36.22;20.98;99102.00;4978836;28;20482;-87
2023/08/14 07:38:07;;;;;;;4.03;2.40;;;;;;;36.45;20.58;99105.19;4945897;28;20038;-87
2023/08/14 07:40:33;;;;;;;4.47;2.35;;;;;;;37.14;19.73;99092.56;4962391;28;20498;-88
2023/08/14 07:42:58;;;;;;;6.20;2.42;;;;;;;37.11;20.55;99095.84;4962171;28;20030;-87
2023/08/14 07:45:24;;;;;;;6.95;2.70;;;;;;;37.72;19.77;99091.00;4978831;28;20480;-86
2023/08/14 07:47:49;;;;;;;5.88;2.70;;;;;;;37.99;19.42;99088.53;4961456;28;20093;-88
2023/08/14 07:50:15;;;;;;;4.65;2.78;;;;;;;38.10;19.95;99102.06;4962223;28;20053;-88
2023/08/14 07:52:40;;;;;;;6.40;3.00;;;;;;;38.30;19.66;99101.84;4963318;28;20039;-86
2023/08/14 07:55:06;;;;;;;4.18;2.88;;;;;;;38.34;19.55;99097.41;4963382;28;20042;-87
2023/08/14 07:57:32;;;;;;;4.38;2.63;;;;;;;38.05;19.96;99085.75;4999017;28;20030;-86
2023/08/14 07:59:57;;;;;;;8.30;2.60;;;;;;;38.09;19.71;99089.53;4984340;28;20045;-89
2023/08/14 08:02:23;;;;;;;7.68;2.60;;;;;;;38.51;19.17;99091.47;4998685;28;20072;-86
2023/08/14 08:04:48;;;;;;;4.38;2.20;;;;;;;38.37;18.92;99093.28;4998859;28;20034;-88
2023/08/14 08:07:14;;;;;;;5.28;2.50;;;;;;;38.04;19.44;99086.88;4983422;28;20424;-90
2023/08/14 08:09:40;;;;;;;6.35;2.25;;;;;;;37.72;19.71;99091.00;4982461;28;20046;-88
2023/08/14 08:12:06;;;;;;;6.45;2.10;;;;;;;37.52;19.85;99078.38;5000658;28;20054;-87
2023/08/14 08:14:32;;;;;;;5.88;2.35;;;;;;;37.45;19.47;99084.97;4968177;28;20530;-87
2023/08/14 08:16:58;;;;;;;3.38;1.90;;;;;;;37.51;19.67;99083.00;4966675;28;20041;-88
2023/08/14 08:19:23;;;;;;;4.07;2.10;;;;;;;38.43;19.18;99083.13;4984160;28;20654;-85
2023/08/14 08:21:49;;;;;;;3.60;1.80;;;;;;;39.02;18.33;99091.84;4983022;28;20037;-87
2023/08/14 08:24:14;;;;;;;4.40;1.63;;;;;;;39.43;17.99;99083.00;5000020;28;20038;-86
2023/08/14 08:26:40;;;;;;;9.27;1.80;;;;;;;39.85;17.77;99083.09;4982806;28;20033;-84
2023/08/14 08:29:05;;;;;;;6.90;1.50;;;;;;;39.43;18.26;99083.00;4965519;28;20050;-87
2023/08/14 08:31:32;;;;;;;4.78;1.65;;;;;;;38.97;18.58;99090.00;4982072;28;20082;-86
2023/08/14 08:33:57;;;;;;;6.63;1.95;;;;;;;39.20;18.31;99085.56;4998477;28;20033;-88
2023/08/14 08:36:23;;;;;;;4.93;1.83;;;;;;;39.51;18.02;99087.78;4984415;28;20556;-88
2023/08/14 08:38:48;;;;;;;5.55;1.67;;;;;;;39.78;18.10;99084.28;4982820;28;20072;-87
2023/08/14 08:41:17;;;;;;;4.60;1.45;;;;;;;40.14;17.36;99088.28;4997918;28;20033;-86
2023/08/14 08:43:42;;;;;;;5.03;1.40;;;;;;;40.19;17.25;99082.72;4981703;28;20135;-89
2023/08/14 08:46:09;;;;;;;4.00;1.40;;;;;;;40.11;17.39;99086.16;4982346;28;20033;-87
2023/08/14 08:48:40;;;;;;;4.30;1.48;;;;;;;40.12;17.02;99076.81;4981953;28;20057;-86
2023/08/14 08:51:06;;;;;;;6.93;1.60;;;;;;;40.38;17.01;99079.84;4983435;28;20030;-86
2023/08/14 08:53:32;;;;;;;2.60;1.40;;;;;;;40.53;16.90;99077.91;4981615;28;20620;-86
2023/08/14 08:55:57;;;;;;;3.45;1.42;;;;;;;40.54;16.67;99077.59;4980876;28;20122;-86
2023/08/14 08:58:23;;;;;;;4.70;1.63;;;;;;;40.15;17.22;99073.47;4981490;28;20050;-86
2023/08/14 09:00:48;;;;;;;6.63;1.55;;;;;;;40.25;17.27;99075.19;4981303;28;20464;-87
2023/08/14 09:03:14;;;;;;;3.80;1.58;;;;;;;40.38;16.89;99079.84;4983301;28;20484;-88
2023/08/14 09:05:41;;;;;;;2.30;1.48;;;;;;;40.29;17.07;99068.81;4983235;28;20056;-86
2023/08/14 09:08:08;;;;;;;5.32;1.60;;;;;;;40.40;17.11;99080.34;4983237;28;20038;-86
2023/08/14 09:10:34;;;;;;;2.70;1.30;;;;;;;39.87;17.47;99078.13;4999338;28;20217;-86
2023/08/14 09:12:59;;;;;;;3.70;1.50;;;;;;;39.61;17.41;99084.06;4997535;28;20038;-86
2023/08/14 09:15:25;;;;;;;3.40;1.50;;;;;;;39.60;17.60;99077.00;4983182;28;20556;-87
2023/08/14 09:17:51;;;;;;;6.78;1.50;;;;;;;39.36;17.55;99074.38;4965861;28;20241;-86
2023/08/14 09:20:18;;;;;;;4.05;1.65;;;;;;;39.10;18.34;99063.13;4980425;28;20045;-84
2023/08/14 09:22:44;;;;;;;6.22;1.60;;;;;;;39.02;18.42;99065.38;4996952;28;20149;-87
2023/08/14 09:25:10;;;;;;;4.80;1.40;;;;;;;38.81;18.82;99066.78;4996584;28;20145;-88
2023/08/14 09:27:36;;;;;;;3.17;1.37;;;;;;;38.64;18.76;99057.22;4980812;28;20030;-87
2023/08/14 09:30:01;;;;;;;5.68;1.52;;;;;;;38.51;19.12;99060.66;4980552;28;20057;-86
2023/08/14 09:32:27;;;;;;;6.13;1.70;;;;;;;38.32;19.58;99063.38;4982029;28;20042;-87
2023/08/14 09:35:04;;;;;;;5.93;1.48;;;;;;;38.01;19.60;99061.00;4998271;28;20559;-85
2023/08/14 09:37:29;;;;;;;;;;;;;;;37.75;19.92;99049.56;4999366;28;20044;-86
2023/08/14 09:40:17;;;;;;;8.00;1.70;;;;;;;37.54;20.55;99054.41;5029139;28;19909;-87
2023/08/14 09:42:49;;;;;;;5.30;1.83;;;;;;;37.37;20.50;99052.09;4981181;28;20073;-89
2023/08/14 09:45:15;;;;;;;11.63;1.88;;;;;;;37.21;20.89;99049.56;4979805;28;20124;-86
2023/08/14 09:47:45;;;;;;;7.28;1.83;;;;;;;37.15;20.96;99058.81;4980413;28;20095;-86
2023/08/14 09:50:13;;;;;;;5.25;1.50;;;;;;;37.02;21.31;99049.41;4981149;28;20080;-87
2023/08/14 09:52:47;;;;;;;7.93;1.80;;;;;;;36.87;21.53;99050.31;4981379;28;20034;-86
2023/08/14 09:55:13;;;;;;;6.68;1.73;;;;;;;36.82;21.52;99058.53;4980592;28;20030;-86
2023/08/14 09:57:39;;;;;;;5.32;1.75;;;;;;;36.78;21.56;99057.44;4980362;28;20030;-86
2023/08/14 10:00:06;;;;;;;5.75;1.70;;;;;;;36.82;21.49;99044.13;4980215;28;20042;-85
2023/08/14 10:02:33;;;;;;;4.65;1.70;;;;;;;36.82;21.67;99052.28;4983345;28;20030;-86
2023/08/14 10:04:59;;;;;;;7.70;1.80;;;;;;;36.80;21.54;99038.97;4997496;28;20123;-87
2023/08/14 10:07:25;;;;;;;3.83;1.70;;;;;;;36.83;21.80;99043.00;4963386;28;20065;-88
2023/08/14 10:09:52;;;;;;;7.53;2.00;;;;;;;36.77;21.60;99061.28;4996744;28;20045;-88
2023/08/14 10:12:22;;;;;;;4.40;1.67;;;;;;;36.67;21.78;99045.78;4982478;28;20038;-87
2023/08/14 10:14:54;;;;;;;9.05;1.80;;;;;;;36.66;21.71;99040.63;4982603;28;20284;-85
2023/08/14 10:17:23;;;;;;;7.28;1.90;;;;;;;36.69;21.74;99045.50;4981665;28;20034;-87
2023/08/14 10:19:51;;;;;;;6.15;2.05;;;;;;;36.57;22.04;99043.97;4969308;28;20034;-87
2023/08/14 10:22:17;;;;;;;5.45;1.88;;;;;;;36.49;21.97;99050.00;4983630;28;20042;-89
2023/08/14 10:24:43;;;;;;;4.20;1.63;;;;;;;36.47;21.91;99043.19;4966948;28;20033;-87
2023/08/14 10:27:08;;;;;;;8.43;1.90;;;;;;;36.46;21.97;99036.16;4984491;28;20558;-86
2023/08/14 10:29:34;;;;;;;7.13;1.77;;;;;;;36.46;22.00;99039.69;4983096;28;20058;-86
2023/08/14 10:31:59;;;;;;;3.85;1.60;;;;;;;36.48;22.03;99032.03;4983254;28;20500;-87
2023/08/14 10:34:25;;;;;;;4.63;1.80;;;;;;;36.48;21.97;99042.13;4985625;28;20080;-86
2023/08/14 10:36:51;;;;;;;4.70;1.70;;;;;;;36.50;22.29;99043.47;4984243;28;20121;-87
2023/08/14 10:39:17;;;;;;;4.00;1.85;;;;;;;36.44;22.18;99024.75;4973194;28;20037;-87
2023/08/14 10:41:42;;;;;;;7.00;2.10;;;;;;;36.38;22.04;99027.47;4983366;28;20026;-86
2023/08/14 10:44:11;;;;;;;3.58;1.52;;;;;;;36.35;22.29;99027.25;4999467;28;20029;-86
2023/08/14 10:46:43;;;;;;;4.50;1.52;;;;;;;36.27;22.33;99030.56;4983889;28;20120;-88
2023/08/14 10:49:12;;;;;;;4.40;1.88;;;;;;;36.17;22.36;99026.75;4999978;28;20116;-85
2023/08/14 10:51:40;;;;;;;6.53;1.90;;;;;;;36.15;22.90;99028.13;4984530;28;20049;-87
2023/08/14 10:54:10;;;;;;;2.83;1.50;;;;;;;36.15;22.84;99020.81;4983294;28;20100;-87
2023/08/14 10:56:41;;;;;;;3.22;1.58;;;;;;;36.13;22.91;99019.44;4966584;28;20570;-87
2023/08/14 10:59:21;;;;;;;3.13;1.70;;;;;;;36.19;22.95;99021.03;4982984;28;20484;-86
2023/08/14 11:02:05;;;;;;;3.15;1.70;;;;;;;36.16;23.25;99022.41;4998864;28;20463;-88
2023/08/14 11:04:31;;;;;;;6.15;1.70;;;;;;;36.15;23.06;99015.38;4983432;28;20041;-87
2023/08/14 11:07:08;;;;;;;6.05;1.60;;;;;;;36.17;23.36;99015.09;4983604;28;20400;-87
2023/08/14 11:09:38;;;;;;;3.47;1.70;;;;;;;36.08;23.77;99008.59;4984989;28;20041;-85
2023/08/14 11:12:08;;;;;;;5.40;2.08;;;;;;;36.09;23.53;99002.06;4968723;28;20400;-86
2023/08/14 11:14:38;;;;;;;3.10;1.65;;;;;;;36.03;23.68;99004.81;4983442;28;20436;-89
2023/08/14 11:17:04;;;;;;;3.55;1.52;;;;;;;36.08;23.77;98997.75;4967649;28;20111;-89
2023/08/14 11:19:30;;;;;;;3.72;1.98;;;;;;;35.94;23.47;99009.19;4982566;28;20378;-86
2023/08/14 11:21:55;;;;;;;5.50;1.67;;;;;;;35.84;23.47;99001.09;4983398;28;20034;-86
2023/08/14 11:24:21;;;;;;;3.03;1.90;;;;;;;35.80;23.16;98998.13;4982167;28;20440;-87
2023/08/14 11:26:46;;;;;;;4.80;2.10;;;;;;;35.67;23.46;98999.47;4965143;28;20045;-87
2023/08/14 11:29:12;;;;;;;5.35;2.05;;;;;;;35.58;23.68;98989.47;4997506;28;20056;-86
2023/08/14 11:31:37;;;;;;;8.65;2.20;;;;;;;35.61;23.53;98999.78;4982446;28;20092;-85